createdAt,value
2022-11-12T00:00:04.083Z,12.80
2022-11-12T00:02:52.457Z,12.73
2022-11-12T00:05:39.246Z,12.31
2022-11-12T00:08:26.721Z,12.75
2022-11-12T00:11:13.718Z,12.73
2022-11-12T00:14:00.356Z,12.25
2022-11-12T00:16:47.302Z,12.68
2022-11-12T00:19:35.838Z,12.90
2022-11-12T00:22:22.514Z,12.85
2022-11-12T00:25:10.317Z,12.96
2022-11-12T00:28:03.495Z,13.02
2022-11-12T00:30:50.233Z,13.06
2022-11-12T00:33:41.897Z,13.07
2022-11-12T00:36:30.351Z,13.06
2022-11-12T00:39:17.484Z,13.08
2022-11-12T00:42:05.155Z,13.06
2022-11-12T00:44:51.976Z,12.90
2022-11-12T00:47:38.580Z,13.14
2022-11-12T00:50:25.642Z,13.09
2022-11-12T00:53:13.786Z,13.07
2022-11-12T00:56:05.746Z,13.02
2022-11-12T00:58:52.606Z,13.06
2022-11-12T01:01:40.451Z,13.08
2022-11-12T01:04:27.127Z,13.09
2022-11-12T01:07:15.940Z,13.09
2022-11-12T01:10:04.618Z,12.09
2022-11-12T01:12:51.275Z,13.08
2022-11-12T01:15:42.753Z,13.08
2022-11-12T01:18:29.813Z,13.07
2022-11-12T01:21:16.734Z,13.06
2022-11-12T01:24:06.822Z,13.06
2022-11-12T01:26:55.223Z,12.87
2022-11-12T01:29:42.019Z,13.04
2022-11-12T01:32:29.065Z,12.99
2022-11-12T01:35:16.122Z,12.89
2022-11-12T01:38:02.886Z,12.99
2022-11-12T01:40:49.860Z,13.01
2022-11-12T01:43:38.372Z,13.06
2022-11-12T01:46:31.230Z,13.02
2022-11-12T01:49:23.915Z,12.99
2022-11-12T01:52:18.634Z,13.02
2022-11-12T01:55:13.414Z,12.91
2022-11-12T01:58:12.556Z,12.99
2022-11-12T02:01:02.109Z,12.43
2022-11-12T02:03:50.541Z,13.01
2022-11-12T02:06:38.893Z,12.81
2022-11-12T02:09:26.531Z,12.87
2022-11-12T02:12:33.500Z,12.82
2022-11-12T02:15:19.811Z,13.08
2022-11-12T02:18:09.279Z,12.83
2022-11-12T02:20:59.345Z,12.88
2022-11-12T02:23:47.347Z,12.56
2022-11-12T02:26:36.985Z,12.95
2022-11-12T02:29:24.261Z,12.75
2022-11-12T02:32:11.090Z,12.87
2022-11-12T02:34:57.885Z,12.56
2022-11-12T02:37:44.907Z,12.60
2022-11-12T02:40:33.188Z,12.73
2022-11-12T02:43:19.954Z,12.55
2022-11-12T02:46:07.140Z,12.41
2022-11-12T02:48:53.790Z,12.55
2022-11-12T02:51:41.004Z,12.45
2022-11-12T02:54:27.735Z,10.64
2022-11-12T02:57:17.891Z,12.48
2022-11-12T03:00:06.788Z,12.52
2022-11-12T03:02:59.885Z,12.43
2022-11-12T03:05:55.057Z,12.54
2022-11-12T03:08:41.971Z,12.51
2022-11-12T03:11:28.754Z,12.60
2022-11-12T03:14:17.215Z,12.62
2022-11-12T03:17:04.108Z,12.59
2022-11-12T03:19:51.095Z,12.58
2022-11-12T03:22:38.060Z,12.59
2022-11-12T03:25:24.885Z,12.51
2022-11-12T03:28:14.569Z,12.26
2022-11-12T03:31:03.243Z,11.89
2022-11-12T03:33:50.323Z,12.21
2022-11-12T03:36:37.545Z,12.20
2022-11-12T03:39:24.357Z,11.57
2022-11-12T03:42:11.621Z,12.27
2022-11-12T03:44:58.278Z,12.30
2022-11-12T03:47:48.629Z,12.06
2022-11-12T03:50:36.900Z,11.41
2022-11-12T03:53:23.544Z,11.46
2022-11-12T03:56:10.360Z,11.21
2022-11-12T03:58:57.160Z,11.00
2022-11-12T04:01:44.219Z,11.01
2022-11-12T04:04:46.474Z,10.52
2022-11-12T04:07:51.189Z,9.99
2022-11-12T04:10:38.285Z,9.96
2022-11-12T04:13:31.337Z,10.08
2022-11-12T04:16:38.682Z,9.89
2022-11-12T04:19:43.418Z,10.07
2022-11-12T04:22:31.582Z,9.73
2022-11-12T04:25:35.014Z,9.87
2022-11-12T04:28:22.016Z,9.91
2022-11-12T04:31:07.823Z,10.00
2022-11-12T04:33:54.561Z,9.77
2022-11-12T04:36:41.355Z,9.49
2022-11-12T04:39:29.775Z,9.35
2022-11-12T04:42:37.029Z,8.99
2022-11-12T04:45:24.058Z,9.00
2022-11-12T04:48:11.164Z,8.71
2022-11-12T04:51:01.132Z,9.04
2022-11-12T04:53:47.913Z,9.03
2022-11-12T04:56:36.190Z,9.04
2022-11-12T04:59:23.141Z,9.03
2022-11-12T05:02:10.180Z,9.28
2022-11-12T05:04:56.783Z,9.12
2022-11-12T05:07:43.812Z,9.13
2022-11-12T05:10:31.757Z,9.12
2022-11-12T05:13:20.246Z,8.88
2022-11-12T05:16:07.426Z,8.53
2022-11-12T05:18:54.045Z,8.80
2022-11-12T05:21:58.491Z,9.07
2022-11-12T05:24:46.099Z,7.93
2022-11-12T05:27:32.823Z,8.71
2022-11-12T05:30:21.687Z,8.76
2022-11-12T05:33:09.074Z,8.85
2022-11-12T05:35:57.644Z,8.55
2022-11-12T05:38:44.224Z,8.92
2022-11-12T05:41:45.209Z,8.99
2022-11-12T05:44:38.271Z,8.94
2022-11-12T05:47:26.682Z,9.06
2022-11-12T05:50:13.513Z,9.00
2022-11-12T05:53:00.557Z,9.10
2022-11-12T05:55:47.609Z,9.04
2022-11-12T05:58:34.687Z,9.09
2022-11-12T06:01:21.862Z,8.98
2022-11-12T06:04:09.998Z,8.93
2022-11-12T06:06:56.726Z,8.92
2022-11-12T06:09:43.537Z,8.75
2022-11-12T06:12:31.250Z,8.60
2022-11-12T06:15:21.116Z,8.63
2022-11-12T06:18:07.952Z,8.36
2022-11-12T06:21:13.328Z,8.68
2022-11-12T06:24:01.449Z,8.79
2022-11-12T06:26:49.830Z,8.49
2022-11-12T06:29:36.582Z,8.54
2022-11-12T06:32:23.542Z,8.65
2022-11-12T06:35:11.124Z,8.70
2022-11-12T06:37:59.169Z,8.63
2022-11-12T06:40:45.746Z,8.55
2022-11-12T06:43:34.194Z,8.69
2022-11-12T06:46:21.261Z,8.58
2022-11-12T06:49:08.494Z,8.66
2022-11-12T06:51:54.994Z,8.71
2022-11-12T06:54:43.450Z,8.42
2022-11-12T06:57:30.201Z,8.73
2022-11-12T07:00:18.778Z,8.50
2022-11-12T07:03:08.733Z,8.79
2022-11-12T07:05:55.782Z,8.91
2022-11-12T07:08:43.239Z,8.65
2022-11-12T07:11:31.713Z,9.04
2022-11-12T07:14:18.316Z,9.05
2022-11-12T07:17:06.467Z,9.14
2022-11-12T07:19:53.431Z,9.27
2022-11-12T07:22:40.661Z,9.17
2022-11-12T07:25:27.436Z,9.17
2022-11-12T07:28:15.903Z,9.01
2022-11-12T07:31:04.671Z,9.25
2022-11-12T07:33:51.399Z,9.35
2022-11-12T07:36:38.431Z,9.58
2022-11-12T07:39:25.405Z,9.82
2022-11-12T07:42:12.157Z,9.77
2022-11-12T07:45:00.404Z,9.78
2022-11-12T07:47:47.139Z,9.63
2022-11-12T07:50:34.131Z,9.95
2022-11-12T07:53:21.206Z,9.86
2022-11-12T07:56:08.853Z,10.10
2022-11-12T07:58:55.572Z,10.19
2022-11-12T08:01:44.996Z,10.39
2022-11-12T08:04:31.701Z,10.31
2022-11-12T08:07:18.680Z,10.08
2022-11-12T08:10:06.702Z,10.62
2022-11-12T08:12:53.351Z,10.70
2022-11-12T08:15:40.404Z,11.10
2022-11-12T08:18:29.869Z,11.22
2022-11-12T08:21:19.339Z,9.72
2022-11-12T08:24:06.895Z,11.62
2022-11-12T08:26:53.816Z,11.88
2022-11-12T08:29:41.030Z,11.70
2022-11-12T08:32:27.928Z,11.09
2022-11-12T08:35:16.353Z,12.01
2022-11-12T08:38:06.612Z,12.06
2022-11-12T08:40:53.538Z,12.18
2022-11-12T08:43:42.182Z,12.37
2022-11-12T08:46:29.397Z,12.79
2022-11-12T08:49:16.289Z,12.98
2022-11-12T08:52:07.623Z,13.19
2022-11-12T08:54:54.345Z,12.98
2022-11-12T08:57:46.127Z,12.41
2022-11-12T09:00:35.673Z,12.84
2022-11-12T09:03:25.340Z,12.94
2022-11-12T09:06:12.078Z,13.61
2022-11-12T09:09:00.476Z,13.46
2022-11-12T09:11:47.175Z,13.47
2022-11-12T09:14:34.172Z,13.64
2022-11-12T09:17:21.042Z,13.20
2022-11-12T09:20:08.919Z,13.17
2022-11-12T09:23:00.984Z,11.61
2022-11-12T09:25:49.606Z,13.39
2022-11-12T09:28:36.639Z,13.64
2022-11-12T09:31:25.709Z,14.09
2022-11-12T09:34:12.715Z,14.21
2022-11-12T09:36:59.467Z,14.50
2022-11-12T09:39:46.509Z,14.56
2022-11-12T09:42:37.343Z,14.78
2022-11-12T09:45:31.301Z,14.80
2022-11-12T09:48:25.020Z,15.67
2022-11-12T09:51:29.845Z,15.63
2022-11-12T09:54:25.333Z,15.99
2022-11-12T09:57:13.446Z,15.60
2022-11-12T10:00:03.459Z,16.14
2022-11-12T10:02:57.467Z,15.50
2022-11-12T10:05:51.005Z,15.59
2022-11-12T10:08:49.170Z,15.94
2022-11-12T10:12:15.448Z,15.67
2022-11-12T10:16:10.357Z,16.11
2022-11-12T10:19:31.957Z,16.28
2022-11-12T10:22:38.570Z,15.50
2022-11-12T10:25:28.159Z,16.90
2022-11-12T10:28:35.624Z,17.72
2022-11-12T10:31:25.542Z,18.39
2022-11-12T10:34:20.035Z,16.81
2022-11-12T10:37:12.055Z,18.58
2022-11-12T10:39:59.330Z,18.36
2022-11-12T10:42:59.662Z,18.62
2022-11-12T10:45:49.013Z,18.36
2022-11-12T10:48:37.417Z,18.85
2022-11-12T10:51:32.300Z,18.73
2022-11-12T10:54:31.719Z,18.59
2022-11-12T10:57:27.342Z,17.83
2022-11-12T11:00:23.495Z,17.27
2022-11-12T11:03:22.659Z,15.79
2022-11-12T11:06:27.312Z,16.88
2022-11-12T11:09:21.761Z,17.02
2022-11-12T11:12:28.290Z,16.98
2022-11-12T11:15:24.645Z,16.45
2022-11-12T11:18:15.593Z,15.59
2022-11-12T11:21:19.301Z,15.89
2022-11-12T11:24:29.698Z,16.70
2022-11-12T11:27:31.302Z,16.95
2022-11-12T11:30:20.792Z,17.04
2022-11-12T11:33:30.949Z,16.47
2022-11-12T11:36:29.947Z,16.41
2022-11-12T11:39:27.546Z,16.07
2022-11-12T11:42:49.911Z,16.12
2022-11-12T11:45:58.882Z,16.59
2022-11-12T11:49:03.480Z,16.25
2022-11-12T11:51:59.953Z,16.25
2022-11-12T11:55:01.814Z,16.51
2022-11-12T11:58:07.882Z,16.76
2022-11-12T12:01:08.351Z,16.60
2022-11-12T12:04:38.382Z,17.03
2022-11-12T12:07:40.399Z,17.02
2022-11-12T12:11:01.233Z,17.09
2022-11-12T12:14:00.796Z,16.51
2022-11-12T12:17:00.772Z,17.37
2022-11-12T12:19:59.155Z,17.55
2022-11-12T12:22:51.733Z,17.68
2022-11-12T12:25:42.653Z,17.43
2022-11-12T12:28:38.906Z,16.97
2022-11-12T12:31:33.840Z,17.06
2022-11-12T12:34:25.807Z,16.86
2022-11-12T12:37:23.296Z,17.61
2022-11-12T12:40:20.343Z,17.82
2022-11-12T12:43:16.811Z,17.89
2022-11-12T12:46:05.053Z,17.53
2022-11-12T12:48:55.455Z,17.55
2022-11-12T12:51:42.528Z,18.19
2022-11-12T12:54:59.889Z,18.23
2022-11-12T12:57:49.875Z,18.29
2022-11-12T13:00:40.342Z,18.13
2022-11-12T13:04:02.476Z,18.22
2022-11-12T13:06:56.095Z,17.59
2022-11-12T13:09:43.202Z,17.40
2022-11-12T13:13:08.236Z,17.92
2022-11-12T13:15:57.116Z,18.03
2022-11-12T13:19:05.554Z,17.63
2022-11-12T13:22:51.733Z,17.79
2022-11-12T13:25:41.400Z,17.48
2022-11-12T13:28:28.567Z,17.82
2022-11-12T13:31:29.151Z,17.71
2022-11-12T13:34:23.599Z,18.03
2022-11-12T13:37:23.708Z,18.01
2022-11-12T13:40:17.209Z,16.87
2022-11-12T13:43:31.417Z,18.22
2022-11-12T13:46:28.981Z,17.89
2022-11-12T13:49:18.490Z,17.82
2022-11-12T13:52:07.429Z,17.98
2022-11-12T13:55:09.631Z,16.84
2022-11-12T13:57:58.398Z,17.81
2022-11-12T14:00:54.124Z,18.17
2022-11-12T14:03:49.656Z,18.19
2022-11-12T14:06:40.317Z,18.47
2022-11-12T14:09:56.612Z,17.57
2022-11-12T14:13:13.446Z,16.03
2022-11-12T14:16:37.391Z,18.16
2022-11-12T14:20:23.715Z,17.97
2022-11-12T14:23:21.590Z,17.98
2022-11-12T14:26:15.928Z,17.87
2022-11-12T14:29:06.010Z,17.75
2022-11-12T14:32:04.750Z,16.85
2022-11-12T14:34:51.975Z,17.57
2022-11-12T14:37:43.639Z,18.06
2022-11-12T14:40:34.514Z,18.03
2022-11-12T14:43:33.551Z,17.64
2022-11-12T14:46:29.332Z,18.16
2022-11-12T14:49:29.325Z,17.10
2022-11-12T14:52:23.214Z,18.19
2022-11-12T14:55:15.009Z,18.32
2022-11-12T14:58:03.068Z,17.31
2022-11-12T15:00:52.612Z,18.43
2022-11-12T15:03:41.206Z,18.22
2022-11-12T15:06:33.971Z,17.35
2022-11-12T15:09:33.852Z,17.41
2022-11-12T15:12:25.579Z,17.60
2022-11-12T15:15:22.755Z,16.59
2022-11-12T15:18:18.979Z,17.69
2022-11-12T15:21:15.648Z,16.87
2022-11-12T15:24:09.242Z,15.18
2022-11-12T15:27:03.705Z,16.90
2022-11-12T15:29:50.479Z,16.63
2022-11-12T15:32:37.674Z,16.54
2022-11-12T15:35:36.994Z,16.77
2022-11-12T15:38:33.348Z,17.11
2022-11-12T15:41:25.206Z,17.60
2022-11-12T15:44:12.663Z,17.65
2022-11-12T15:47:00.024Z,17.93
2022-11-12T15:49:51.959Z,17.47
2022-11-12T15:52:39.129Z,18.27
2022-11-12T15:55:28.703Z,18.23
2022-11-12T15:58:21.202Z,18.08
2022-11-12T16:01:08.530Z,17.73
2022-11-12T16:03:57.101Z,17.46
2022-11-12T16:06:48.819Z,17.28
2022-11-12T16:09:36.472Z,17.43
2022-11-12T16:12:25.522Z,17.83
2022-11-12T16:15:19.802Z,17.30
2022-11-12T16:18:07.446Z,17.28
2022-11-12T16:20:56.226Z,15.68
2022-11-12T16:23:46.255Z,15.34
2022-11-12T16:26:34.874Z,16.46
2022-11-12T16:29:23.598Z,16.33
2022-11-12T16:32:15.384Z,15.98
2022-11-12T16:35:02.611Z,16.38
2022-11-12T16:37:50.129Z,16.51
2022-11-12T16:40:39.056Z,16.39
2022-11-12T16:43:26.395Z,16.03
2022-11-12T16:46:29.051Z,16.69
2022-11-12T16:49:21.222Z,15.85
2022-11-12T16:52:12.425Z,16.83
2022-11-12T16:55:04.285Z,16.14
2022-11-12T16:57:52.327Z,16.60
2022-11-12T17:00:40.095Z,16.31
2022-11-12T17:03:28.852Z,16.61
2022-11-12T17:06:17.733Z,16.89
2022-11-12T17:09:06.326Z,15.51
2022-11-12T17:11:53.547Z,16.62
2022-11-12T17:14:40.622Z,15.03
2022-11-12T17:17:27.918Z,16.79
2022-11-12T17:20:16.540Z,16.77
2022-11-12T17:23:03.797Z,16.67
2022-11-12T17:26:00.888Z,16.64
2022-11-12T17:28:48.520Z,16.71
2022-11-12T17:31:37.752Z,16.64
2022-11-12T17:34:25.371Z,16.50
2022-11-12T17:37:15.368Z,16.47
2022-11-12T17:40:02.511Z,16.00
2022-11-12T17:42:49.836Z,15.10
2022-11-12T17:45:37.044Z,15.39
2022-11-12T17:48:25.942Z,15.77
2022-11-12T17:51:16.078Z,15.72
2022-11-12T17:54:05.105Z,15.93
2022-11-12T17:56:52.360Z,13.82
2022-11-12T17:59:39.527Z,15.58
2022-11-12T18:02:26.415Z,15.55
2022-11-12T18:05:13.364Z,15.55
2022-11-12T18:08:00.174Z,15.71
2022-11-12T18:10:48.600Z,16.01
2022-11-12T18:13:37.906Z,16.04
2022-11-12T18:16:30.797Z,15.71
2022-11-12T18:19:18.131Z,15.73
2022-11-12T18:22:05.205Z,15.53
2022-11-12T18:24:52.970Z,14.23
2022-11-12T18:27:41.421Z,15.41
2022-11-12T18:30:35.003Z,15.11
2022-11-12T18:33:22.597Z,15.38
2022-11-12T18:36:12.464Z,15.03
2022-11-12T18:39:05.452Z,15.07
2022-11-12T18:41:52.648Z,15.39
2022-11-12T18:44:48.871Z,14.59
2022-11-12T18:47:36.129Z,14.81
2022-11-12T18:50:25.865Z,14.15
2022-11-12T18:53:12.986Z,13.45
2022-11-12T18:56:03.529Z,14.79
2022-11-12T18:58:54.217Z,14.36
2022-11-12T19:01:43.868Z,14.36
2022-11-12T19:04:38.774Z,15.03
2022-11-12T19:07:28.330Z,14.96
2022-11-12T19:10:46.620Z,13.99
2022-11-12T19:13:27.706Z,14.13
2022-11-12T19:16:22.962Z,15.32
2022-11-12T19:19:15.316Z,15.29
2022-11-12T19:22:02.882Z,14.89
2022-11-12T19:25:00.308Z,14.62
2022-11-12T19:27:48.028Z,14.17
2022-11-12T19:30:36.471Z,14.83
2022-11-12T19:33:23.520Z,15.03
2022-11-12T19:36:16.946Z,15.19
2022-11-12T19:39:06.500Z,14.85
2022-11-12T19:41:53.548Z,15.03
2022-11-12T19:44:41.036Z,14.80
2022-11-12T19:47:29.405Z,14.79
2022-11-12T19:50:18.806Z,14.97
2022-11-12T19:53:13.715Z,13.51
2022-11-12T19:56:04.152Z,12.54
2022-11-12T19:58:54.994Z,14.98
2022-11-12T20:01:41.869Z,15.03
2022-11-12T20:04:29.380Z,15.14
2022-11-12T20:07:16.868Z,14.10
2022-11-12T20:10:06.803Z,15.14
2022-11-12T20:12:56.690Z,14.48
2022-11-12T20:15:45.108Z,14.98
2022-11-12T20:18:39.958Z,14.68
2022-11-12T20:21:30.304Z,13.71
2022-11-12T20:24:19.357Z,12.66
2022-11-12T20:27:13.775Z,15.11
2022-11-12T20:30:01.089Z,13.69
2022-11-12T20:32:51.079Z,15.04
2022-11-12T20:35:39.967Z,14.27
2022-11-12T20:38:29.704Z,14.92
2022-11-12T20:41:22.222Z,14.78
2022-11-12T20:44:11.696Z,13.21
2022-11-12T20:47:01.535Z,14.54
2022-11-12T20:49:48.506Z,14.22
2022-11-12T20:52:37.828Z,14.72
2022-11-12T20:55:24.966Z,14.70
2022-11-12T20:58:11.978Z,14.29
2022-11-12T21:01:08.493Z,14.17
2022-11-12T21:03:57.869Z,12.80
2022-11-12T21:06:45.247Z,14.60
2022-11-12T21:09:32.829Z,14.38
2022-11-12T21:12:19.998Z,14.45
2022-11-12T21:15:10.305Z,14.70
2022-11-12T21:18:02.384Z,14.66
2022-11-12T21:20:52.620Z,14.55
2022-11-12T21:23:43.524Z,13.48
2022-11-12T21:26:31.198Z,14.02
2022-11-12T21:29:20.487Z,13.87
2022-11-12T21:32:07.434Z,14.12
2022-11-12T21:34:56.311Z,14.13
2022-11-12T21:37:50.512Z,14.50
2022-11-12T21:40:37.644Z,14.36
2022-11-12T21:43:35.146Z,14.39
2022-11-12T21:46:24.788Z,14.49
2022-11-12T21:49:12.076Z,13.64
2022-11-12T21:52:03.649Z,14.09
2022-11-12T21:54:50.911Z,13.70
2022-11-12T21:57:40.288Z,13.23
2022-11-12T22:00:47.120Z,13.77
2022-11-12T22:03:36.223Z,12.48
2022-11-12T22:06:28.344Z,13.53
2022-11-12T22:09:17.205Z,13.98
2022-11-12T22:12:06.079Z,14.14
2022-11-12T22:14:54.648Z,14.06
2022-11-12T22:17:44.051Z,13.52
2022-11-12T22:20:32.382Z,14.04
2022-11-12T22:23:21.414Z,13.86
2022-11-12T22:26:15.786Z,13.55
2022-11-12T22:29:14.876Z,12.66
2022-11-12T22:32:02.014Z,13.97
2022-11-12T22:34:49.617Z,13.82
2022-11-12T22:37:36.710Z,13.74
2022-11-12T22:40:24.926Z,12.91
2022-11-12T22:43:13.211Z,13.44
2022-11-12T22:46:06.223Z,13.86
2022-11-12T22:48:53.276Z,13.89
2022-11-12T22:51:40.524Z,13.11
2022-11-12T22:54:29.947Z,13.96
2022-11-12T22:57:17.196Z,13.97
2022-11-12T23:00:21.537Z,12.73
2022-11-12T23:03:08.667Z,13.95
2022-11-12T23:05:59.721Z,13.44
2022-11-12T23:08:47.479Z,13.87
2022-11-12T23:11:35.847Z,13.83
2022-11-12T23:14:23.125Z,13.79
2022-11-12T23:17:12.997Z,13.33
2022-11-12T23:20:00.088Z,13.42
2022-11-12T23:22:47.091Z,13.74
2022-11-12T23:25:37.040Z,13.47
2022-11-12T23:28:24.186Z,13.59
2022-11-12T23:31:15.061Z,13.31
2022-11-12T23:34:03.470Z,11.64
2022-11-12T23:36:50.277Z,13.64
2022-11-12T23:39:37.229Z,12.09
2022-11-12T23:42:24.348Z,13.71
2022-11-12T23:45:14.165Z,13.10
2022-11-12T23:48:01.230Z,12.89
2022-11-12T23:50:51.214Z,13.01
2022-11-12T23:53:39.846Z,13.19
2022-11-12T23:56:27.114Z,13.14
2022-11-12T23:59:13.743Z,12.70
